Main page
METAR-TAF:

METAR-TAF

Airports :

Araxos Airport

Araxos, Greece

latitude: 38-09N, longitude: 021-25E, elevation: 11 m

Current weather observation

The report was made 41 minutes ago, at 14:20 UTC
Wind 6 kt from the South
Temperature 14°C
Humidity 77%
Pressure 1026 hPa
Visibility 10 km or more
Scattered clouds at a height of 2000 ft
Broken clouds at a height of 8000 ft

METAR: LGRX 211420Z 17006KT 9999 SCT020 BKN080 14/10 Q1026

Time: 17:01 (15:01 UTC)

Forecast

The report was made 1 hour and 1 minutes ago, at 14:00 UTC
Forecast valid from 21 at 15 UTC to 21 at 24 UTC
Wind 12 kt from the South
Visibility 10 km or more
Few clouds at a height of 1800 ft
Scattered clouds at a height of 2000 ft
Broken clouds at a height of 8000 ft
Probability 30% :
Temporary
from 21 at 15 UTC to 21 at 24 UTC
Visibility: 5000 m
rain

TAF: LGRX 211400Z 2115/2124 19012KT 9999 FEW018 SCT020 BKN080 PROB30 TEMPO 2115/2124 5000 RA

Weather observations and forecasts of more than 4000 airports (METAR and TAF reports).

The available stations are represented by yellow and red dots on the map.

Hover mouse over dot to see the name of the station.

Then click to see weather observations and forecasts.

To change the map : click on the green buttons with a black cross to zoom in, on the green button with a dash to zoom out, or on the green arrows for adjacent maps.


METAR-TAF: